Aviation Digital Data Service (ADDS)

Output produced by METARs form (1114 UTC 11 May 2021)
found at http://www.aviationweather.gov/metar/data/
 
KSIF 111055Z AUTO 00000KT 10SM SCT070 10/08 A3012 RMK AO2 T01000080